Terminal Aerodrome Forecast
Issued by NWS Cleveland, OH

Home | Current Version | Previous Version | Text Only | Print | Product List | Glossary On
Versions: 1 2 3 4 5 6 7 8 9 10 11 12 13 14 15 16 17 18 19 20 21 22 23 24
000
FTUS41 KCLE 212000 AAB
TAFMFD
TAF AMD
KMFD 212039Z 2121/2218 24008KT P6SM BKN018
     FM220000 23007KT P6SM BKN035
     FM220200 23005KT 5SM BR VCTS BKN035CB OVC080
      TEMPO 2210/2212 1SM TSRA BR BKN015CB OVC025
     FM221200 24007KT 6SM BR VCSH BKN030=

USA.gov is the U.S. government's official web portal to all federal, state and local government web resources and services.